Time;durP1;ratioP1;P1;durP2;ratioP2;P2;SDS_P1;SDS_P2;PMS_P1;PMS_P2;Temp;Humidity;BMP_temperature;BMP_pressure;BME280_temperature;BME280_humidity;BME280_pressure;Samples;Min_cycle;Max_cycle;Signal;HPM_P1;HPM_P2
2023/07/26 00:01:32;;;;;;;;;;;19.70;99.90;;;;;;6022725;23;19924;-70
2023/07/26 00:03:58;;;;;;;;;;;19.70;99.90;;;;;;6022043;23;20345;-70
2023/07/26 00:06:25;;;;;;;;;;;19.70;99.90;;;;;;6022784;23;19952;-70
2023/07/26 00:08:50;;;;;;;;;;;19.60;99.90;;;;;;6022068;23;20405;-70
2023/07/26 00:11:16;;;;;;;;;;;19.70;99.90;;;;;;6022343;23;19932;-70
2023/07/26 00:13:41;;;;;;;;;;;19.70;99.90;;;;;;5998755;23;19933;-70
2023/07/26 00:16:07;;;;;;;;;;;19.80;99.90;;;;;;6023557;23;19958;-69
2023/07/26 00:18:32;;;;;;;;;;;19.80;99.90;;;;;;6024217;23;19930;-70
2023/07/26 00:20:58;;;;;;;;;;;19.80;99.90;;;;;;6024156;23;19992;-70
2023/07/26 00:23:23;;;;;;;;;;;19.80;99.90;;;;;;6024938;23;20000;-70
2023/07/26 00:25:49;;;;;;;;;;;19.80;99.90;;;;;;6021926;23;19929;-70
2023/07/26 00:28:14;;;;;;;;;;;19.70;99.90;;;;;;6023556;23;19962;-70
2023/07/26 00:30:40;;;;;;;;;;;19.70;99.90;;;;;;6021570;23;19926;-68
2023/07/26 00:33:05;;;;;;;;;;;19.70;99.90;;;;;;6024650;23;19932;-69
2023/07/26 00:35:35;;;;;;;;;;;19.60;99.90;;;;;;6023744;23;19957;-69
2023/07/26 00:38:00;;;;;;;;;;;19.60;99.90;;;;;;6000476;23;20383;-69
2023/07/26 00:40:26;;;;;;;;;;;19.60;99.90;;;;;;6027206;23;19961;-69
2023/07/26 00:42:51;;;;;;;;;;;19.60;99.90;;;;;;5999731;23;20197;-69
2023/07/26 00:45:17;;;;;;;;;;;19.70;99.90;;;;;;6027417;23;20307;-69
2023/07/26 00:47:43;;;;;;;;;;;19.70;99.90;;;;;;6026240;23;19930;-68
2023/07/26 00:50:08;;;;;;;;;;;19.60;99.90;;;;;;6027554;23;20321;-70
2023/07/26 00:52:34;;;;;;;;;;;19.70;99.90;;;;;;6019363;23;20259;-70
2023/07/26 00:55:02;;;;;;;;;;;19.60;99.90;;;;;;6026907;23;19957;-70
2023/07/26 00:57:29;;;;;;;;;;;19.60;99.90;;;;;;6027502;23;19938;-70
2023/07/26 00:59:55;;;;;;;;;;;19.70;99.90;;;;;;5999880;23;19933;-70
2023/07/26 01:02:20;;;;;;;;;;;19.70;99.90;;;;;;6025829;23;20043;-70
2023/07/26 01:04:46;;;;;;;;;;;19.70;99.90;;;;;;6027075;23;20019;-70
2023/07/26 01:07:23;;;;;;;;;;;19.70;99.90;;;;;;6027032;23;20426;-69
2023/07/26 01:09:55;;;;;;;;;;;19.70;99.90;;;;;;5998021;23;20347;-69
2023/07/26 01:12:33;;;;;;;;;;;19.70;99.90;;;;;;6027783;23;19930;-69
2023/07/26 01:15:02;;;;;;;;;;;19.70;99.90;;;;;;6027359;23;20131;-68
2023/07/26 01:17:28;;;;;;;;;;;19.60;99.90;;;;;;6028296;23;19932;-68
2023/07/26 01:19:54;;;;;;;;;;;19.60;99.90;;;;;;6025632;23;19928;-69
2023/07/26 01:22:19;;;;;;;;;;;19.60;99.90;;;;;;6025160;23;19933;-69
2023/07/26 01:24:45;;;;;;;;;;;19.70;99.90;;;;;;6026765;23;19999;-69
2023/07/26 01:27:10;;;;;;;;;;;19.70;99.90;;;;;;6024617;23;19941;-69
2023/07/26 01:29:36;;;;;;;;;;;19.70;99.90;;;;;;5998900;23;20667;-69
2023/07/26 01:32:02;;;;;;;;;;;19.70;99.90;;;;;;6028987;23;19982;-69
2023/07/26 01:34:27;;;;;;;;;;;19.70;99.90;;;;;;6025688;23;20201;-69
2023/07/26 01:36:53;;;;;;;;;;;19.60;99.90;;;;;;6026869;23;19929;-69
2023/07/26 01:39:19;;;;;;;;;;;19.60;99.90;;;;;;6001640;23;19932;-69
2023/07/26 01:41:45;;;;;;;;;;;19.60;99.90;;;;;;6028969;23;19941;-68
2023/07/26 01:44:11;;;;;;;;;;;19.60;99.90;;;;;;6027534;23;20069;-69
2023/07/26 01:46:36;;;;;;;;;;;19.60;99.90;;;;;;6027546;23;20348;-68
2023/07/26 01:49:02;;;;;;;;;;;19.60;99.90;;;;;;6025726;23;19935;-69
2023/07/26 01:51:28;;;;;;;;;;;19.60;99.90;;;;;;6025995;23;20311;-69
2023/07/26 01:53:53;;;;;;;;;;;19.50;99.90;;;;;;6024053;23;19963;-69
2023/07/26 01:56:19;;;;;;;;;;;19.60;99.90;;;;;;6026317;23;19930;-68
2023/07/26 01:58:45;;;;;;;;;;;19.60;99.90;;;;;;6025488;23;19931;-69
2023/07/26 02:01:10;;;;;;;;;;;19.50;99.90;;;;;;6025765;23;19933;-69
2023/07/26 02:03:36;;;;;;;;;;;19.50;99.90;;;;;;6026848;23;20607;-70
2023/07/26 02:06:01;;;;;;;;;;;19.50;99.90;;;;;;6025596;23;19937;-70
2023/07/26 02:08:27;;;;;;;;;;;19.40;99.90;;;;;;6025198;23;19938;-70
2023/07/26 02:10:52;;;;;;;;;;;19.40;99.90;;;;;;6025761;23;19956;-70
2023/07/26 02:13:18;;;;;;;;;;;19.40;99.90;;;;;;6024613;23;19925;-70
2023/07/26 02:15:44;;;;;;;;;;;19.40;99.90;;;;;;6024804;23;19954;-70
2023/07/26 02:18:10;;;;;;;;;;;19.30;99.90;;;;;;6024808;23;19926;-70
2023/07/26 02:20:35;;;;;;;;;;;19.10;99.90;;;;;;6025817;23;19946;-68
2023/07/26 02:23:01;;;;;;;;;;;19.00;99.90;;;;;;6025810;23;20009;-68
2023/07/26 02:25:26;;;;;;;;;;;19.00;99.90;;;;;;6026431;23;20363;-69
2023/07/26 02:27:52;;;;;;;;;;;19.00;99.90;;;;;;6025427;23;19939;-69
2023/07/26 02:30:18;;;;;;;;;;;18.90;99.90;;;;;;6024952;23;19993;-69
2023/07/26 02:32:43;;;;;;;;;;;18.90;99.90;;;;;;6024469;23;19932;-68
2023/07/26 02:35:09;;;;;;;;;;;19.00;99.90;;;;;;6025049;23;19989;-69
2023/07/26 02:37:34;;;;;;;;;;;19.00;99.90;;;;;;6024638;23;20259;-68
2023/07/26 02:40:00;;;;;;;;;;;19.00;99.90;;;;;;6024866;23;19923;-68
2023/07/26 02:42:27;;;;;;;;;;;19.00;99.90;;;;;;6000021;23;20526;-68
2023/07/26 02:44:53;;;;;;;;;;;19.00;99.90;;;;;;6024965;23;19973;-68
2023/07/26 02:47:19;;;;;;;;;;;18.90;99.90;;;;;;6025287;23;20020;-69
2023/07/26 02:49:44;;;;;;;;;;;18.90;99.90;;;;;;6024742;23;19956;-69
2023/07/26 02:52:10;;;;;;;;;;;18.80;99.90;;;;;;6026200;23;20467;-68
2023/07/26 02:54:35;;;;;;;;;;;18.80;99.90;;;;;;6024629;23;19957;-69
2023/07/26 02:57:01;;;;;;;;;;;18.80;99.90;;;;;;6022218;23;19927;-68
2023/07/26 02:59:26;;;;;;;;;;;18.90;99.90;;;;;;6023275;23;19950;-68
2023/07/26 03:01:52;;;;;;;;;;;18.90;99.90;;;;;;6023231;23;19929;-69
2023/07/26 03:04:18;;;;;;;;;;;18.90;99.90;;;;;;6025426;23;20170;-69
2023/07/26 03:06:43;;;;;;;;;;;18.90;99.90;;;;;;6024063;23;19937;-69
2023/07/26 03:09:09;;;;;;;;;;;18.90;99.90;;;;;;6025787;23;19997;-69
2023/07/26 03:11:34;;;;;;;;;;;18.90;99.90;;;;;;6025987;23;20366;-69
2023/07/26 03:14:00;;;;;;;;;;;18.90;99.90;;;;;;6023393;23;20235;-69
2023/07/26 03:16:25;;;;;;;;;;;18.80;99.90;;;;;;6024593;23;19940;-69
2023/07/26 03:18:51;;;;;;;;;;;18.80;99.90;;;;;;6024489;23;19960;-69
2023/07/26 03:21:16;;;;;;;;;;;18.90;99.90;;;;;;6024368;23;20339;-69
2023/07/26 03:23:42;;;;;;;;;;;18.90;99.90;;;;;;6023619;23;19927;-68
2023/07/26 03:26:07;;;;;;;;;;;18.90;99.90;;;;;;6024448;23;20010;-68
2023/07/26 03:28:33;;;;;;;;;;;19.00;99.90;;;;;;6022276;23;20050;-68
2023/07/26 03:31:00;;;;;;;;;;;19.00;99.90;;;;;;6022544;23;19939;-68
2023/07/26 03:33:25;;;;;;;;;;;19.00;99.90;;;;;;6024519;23;19942;-70
2023/07/26 03:35:51;;;;;;;;;;;19.10;99.90;;;;;;6023065;23;19958;-70
2023/07/26 03:38:17;;;;;;;;;;;19.10;99.90;;;;;;6025190;23;19932;-70
2023/07/26 03:40:42;;;;;;;;;;;19.10;99.90;;;;;;5998496;23;20352;-70
2023/07/26 03:43:08;;;;;;;;;;;19.10;99.90;;;;;;6024437;23;20061;-70
2023/07/26 03:45:33;;;;;;;;;;;19.20;99.90;;;;;;6022628;23;19925;-70
2023/07/26 03:47:59;;;;;;;;;;;19.20;99.90;;;;;;6023972;23;20034;-70
2023/07/26 03:50:25;;;;;;;;;;;19.20;99.90;;;;;;6024333;23;19957;-70
2023/07/26 03:52:50;;;;;;;;;;;19.30;99.90;;;;;;6025633;23;20430;-70
2023/07/26 03:55:16;;;;;;;;;;;19.30;99.90;;;;;;6025825;23;19950;-70
2023/07/26 03:57:41;;;;;;;;;;;19.30;99.90;;;;;;6023368;23;19932;-71
2023/07/26 04:00:08;;;;;;;;;;;19.40;99.90;;;;;;6023251;23;19981;-69
2023/07/26 04:02:34;;;;;;;;;;;19.30;99.90;;;;;;6017552;23;20751;-69
2023/07/26 04:04:59;;;;;;;;;;;19.30;99.90;;;;;;6022293;23;19934;-69
2023/07/26 04:07:25;;;;;;;;;;;19.30;99.90;;;;;;6023748;23;19933;-69
2023/07/26 04:09:51;;;;;;;;;;;19.30;99.90;;;;;;6026815;23;19930;-68
2023/07/26 04:12:16;;;;;;;;;;;19.30;99.90;;;;;;5997555;23;19930;-68
2023/07/26 04:14:42;;;;;;;;;;;19.40;99.90;;;;;;6025169;23;20041;-68
2023/07/26 04:17:07;;;;;;;;;;;19.50;99.90;;;;;;5996002;23;19957;-68
2023/07/26 04:19:33;;;;;;;;;;;19.60;99.90;;;;;;6021992;23;19937;-68
2023/07/26 04:21:58;;;;;;;;;;;19.60;99.90;;;;;;6024932;23;19935;-68
2023/07/26 04:24:24;;;;;;;;;;;19.60;99.90;;;;;;6026316;23;19929;-69
2023/07/26 04:26:50;;;;;;;;;;;19.60;99.90;;;;;;6024385;23;19927;-68
2023/07/26 04:29:15;;;;;;;;;;;19.70;99.90;;;;;;6025048;23;19932;-68
2023/07/26 04:31:41;;;;;;;;;;;19.70;99.90;;;;;;6024609;23;20028;-68
2023/07/26 04:34:06;;;;;;;;;;;19.70;99.90;;;;;;6023979;23;19954;-68
2023/07/26 04:36:32;;;;;;;;;;;19.60;99.90;;;;;;6024225;23;19937;-67
2023/07/26 04:38:57;;;;;;;;;;;19.50;99.90;;;;;;6025990;23;19927;-67
2023/07/26 04:41:23;;;;;;;;;;;19.40;99.90;;;;;;6024243;23;19929;-67
2023/07/26 04:43:48;;;;;;;;;;;19.50;99.90;;;;;;6024797;23;20464;-67
2023/07/26 04:46:15;;;;;;;;;;;19.60;99.90;;;;;;6025772;23;20359;-67
2023/07/26 04:48:41;;;;;;;;;;;19.70;99.90;;;;;;6025206;23;20359;-71
2023/07/26 04:51:06;;;;;;;;;;;19.70;99.90;;;;;;6021581;23;20011;-72
2023/07/26 04:53:32;;;;;;;;;;;19.80;99.90;;;;;;5998654;23;20020;-72
2023/07/26 04:55:57;;;;;;;;;;;19.80;99.90;;;;;;6023486;23;20054;-72
2023/07/26 04:58:23;;;;;;;;;;;19.90;99.90;;;;;;5997996;23;20701;-72
2023/07/26 05:00:49;;;;;;;;;;;19.90;99.90;;;;;;6022245;23;19978;-71
2023/07/26 05:03:15;;;;;;;;;;;19.90;99.90;;;;;;6023303;23;20255;-72
2023/07/26 05:05:41;;;;;;;;;;;19.90;99.90;;;;;;6023031;23;19938;-72
2023/07/26 05:08:07;;;;;;;;;;;20.00;99.90;;;;;;6024930;23;19945;-67
2023/07/26 05:10:32;;;;;;;;;;;20.00;99.90;;;;;;6023536;23;20311;-67
2023/07/26 05:12:58;;;;;;;;;;;20.00;99.90;;;;;;6021831;23;19928;-66
2023/07/26 05:15:23;;;;;;;;;;;20.00;99.90;;;;;;6024492;23;19954;-67
2023/07/26 05:17:50;;;;;;;;;;;20.00;99.90;;;;;;6025133;23;20265;-66
2023/07/26 05:20:15;;;;;;;;;;;19.90;99.90;;;;;;6025350;23;19985;-67
2023/07/26 05:22:41;;;;;;;;;;;19.80;99.90;;;;;;6023215;23;19932;-67
2023/07/26 05:25:06;;;;;;;;;;;19.80;99.90;;;;;;6028441;23;20008;-67
2023/07/26 05:27:32;;;;;;;;;;;19.90;99.90;;;;;;6025367;23;19922;-67
2023/07/26 05:29:58;;;;;;;;;;;20.00;99.90;;;;;;5999847;23;19931;-67
2023/07/26 05:32:23;;;;;;;;;;;19.90;99.90;;;;;;6025322;23;19955;-67
2023/07/26 05:34:50;;;;;;;;;;;19.90;99.90;;;;;;6026337;23;20809;-67
2023/07/26 05:37:15;;;;;;;;;;;20.00;99.90;;;;;;6024897;23;20721;-66
2023/07/26 05:39:41;;;;;;;;;;;20.10;99.90;;;;;;6024048;23;19933;-66
2023/07/26 05:42:06;;;;;;;;;;;20.10;99.90;;;;;;6024815;23;19993;-67
2023/07/26 05:44:32;;;;;;;;;;;20.20;99.90;;;;;;6022021;23;19965;-67
2023/07/26 05:46:58;;;;;;;;;;;20.20;99.90;;;;;;6026191;23;19932;-67
2023/07/26 05:49:24;;;;;;;;;;;20.20;99.90;;;;;;6027707;23;19995;-67
2023/07/26 05:51:49;;;;;;;;;;;20.20;99.90;;;;;;6024806;23;20208;-67
2023/07/26 05:54:15;;;;;;;;;;;20.20;99.90;;;;;;6029109;23;19957;-67
2023/07/26 05:56:40;;;;;;;;;;;20.30;99.90;;;;;;6024510;23;19934;-68
2023/07/26 05:59:06;;;;;;;;;;;20.40;99.90;;;;;;6027631;23;20041;-68
2023/07/26 06:01:31;;;;;;;;;;;20.40;99.90;;;;;;6026931;23;19937;-73
2023/07/26 06:03:57;;;;;;;;;;;20.30;99.90;;;;;;6024174;23;19925;-68
2023/07/26 06:06:22;;;;;;;;;;;20.30;99.90;;;;;;6024735;23;20031;-68
2023/07/26 06:08:50;;;;;;;;;;;20.20;99.90;;;;;;6026338;23;19930;-68
2023/07/26 06:11:16;;;;;;;;;;;20.20;99.90;;;;;;6026864;23;19928;-69
2023/07/26 06:13:41;;;;;;;;;;;20.20;99.90;;;;;;6025811;23;20544;-69
2023/07/26 06:16:07;;;;;;;;;;;20.30;99.90;;;;;;6026785;23;19973;-70
2023/07/26 06:18:32;;;;;;;;;;;20.30;99.90;;;;;;6026981;23;19970;-69
2023/07/26 06:20:58;;;;;;;;;;;20.20;99.90;;;;;;6026719;23;19934;-74
2023/07/26 06:23:23;;;;;;;;;;;20.10;99.90;;;;;;6026889;23;19926;-74
2023/07/26 06:25:49;;;;;;;;;;;20.10;99.90;;;;;;6027526;23;20001;-73
2023/07/26 06:28:15;;;;;;;;;;;20.10;99.90;;;;;;6023081;23;19930;-73
2023/07/26 06:30:40;;;;;;;;;;;20.00;99.90;;;;;;6021319;23;19926;-73
2023/07/26 06:33:06;;;;;;;;;;;20.00;99.90;;;;;;6022986;23;19973;-73
2023/07/26 06:35:32;;;;;;;;;;;20.00;99.90;;;;;;6027537;23;19987;-73
2023/07/26 06:37:57;;;;;;;;;;;20.00;99.90;;;;;;6027550;23;20211;-68
2023/07/26 06:40:23;;;;;;;;;;;20.10;99.90;;;;;;6028328;23;20003;-69
2023/07/26 06:42:48;;;;;;;;;;;20.20;99.90;;;;;;5999167;23;19932;-68
2023/07/26 06:45:14;;;;;;;;;;;20.20;99.90;;;;;;6025671;23;20420;-69
2023/07/26 06:47:39;;;;;;;;;;;20.20;99.90;;;;;;6026503;23;19928;-69
2023/07/26 06:50:05;;;;;;;;;;;20.20;99.90;;;;;;6026859;23;20685;-68
2023/07/26 06:52:31;;;;;;;;;;;20.20;99.90;;;;;;6027868;23;19986;-68
2023/07/26 06:54:57;;;;;;;;;;;20.10;99.90;;;;;;6027484;23;19949;-68
2023/07/26 06:57:22;;;;;;;;;;;20.10;99.90;;;;;;6027329;23;20345;-68
2023/07/26 06:59:48;;;;;;;;;;;20.10;99.90;;;;;;6026719;23;19928;-68
2023/07/26 07:02:13;;;;;;;;;;;20.10;99.90;;;;;;6025238;23;20008;-68
2023/07/26 07:04:39;;;;;;;;;;;20.10;99.90;;;;;;6027625;23;20027;-69
2023/07/26 07:07:05;;;;;;;;;;;20.10;99.90;;;;;;6024008;23;19926;-69
2023/07/26 07:09:30;;;;;;;;;;;20.10;99.90;;;;;;6026639;23;19956;-69
2023/07/26 07:11:56;;;;;;;;;;;20.20;99.90;;;;;;6026843;23;20472;-69
2023/07/26 07:14:21;;;;;;;;;;;20.20;99.90;;;;;;6026916;23;19948;-68
2023/07/26 07:16:47;;;;;;;;;;;20.20;99.90;;;;;;6025713;23;19970;-68
2023/07/26 07:19:12;;;;;;;;;;;20.20;99.90;;;;;;6024792;23;19925;-68
2023/07/26 07:21:56;;;;;;;;;;;20.20;99.90;;;;;;6022124;23;19923;-68
2023/07/26 07:24:22;;;;;;;;;;;20.30;99.90;;;;;;6024115;23;19932;-68
2023/07/26 07:26:47;;;;;;;;;;;20.20;99.90;;;;;;6024927;23;19920;-68
2023/07/26 07:29:14;;;;;;;;;;;20.30;99.90;;;;;;6025661;23;19921;-68
2023/07/26 07:31:39;;;;;;;;;;;20.30;99.90;;;;;;6025782;23;19934;-68
2023/07/26 07:34:04;;;;;;;;;;;20.30;99.90;;;;;;6023248;23;19950;-69
2023/07/26 07:36:30;;;;;;;;;;;20.30;99.90;;;;;;6023331;23;20366;-69
2023/07/26 07:38:56;;;;;;;;;;;20.30;99.90;;;;;;6026612;23;19990;-69
2023/07/26 07:41:21;;;;;;;;;;;20.30;99.90;;;;;;6025275;23;19925;-69
2023/07/26 07:43:46;;;;;;;;;;;20.30;99.90;;;;;;6023567;23;20261;-69
2023/07/26 07:46:12;;;;;;;;;;;20.30;99.90;;;;;;6024096;23;19943;-80
2023/07/26 07:48:40;;;;;;;;;;;20.20;99.90;;;;;;6027340;23;19973;-69
2023/07/26 07:51:05;;;;;;;;;;;20.10;99.90;;;;;;5999601;23;19936;-68
2023/07/26 07:53:31;;;;;;;;;;;20.00;99.90;;;;;;6023626;23;20012;-69
2023/07/26 07:55:56;;;;;;;;;;;20.00;99.90;;;;;;6024283;23;19949;-69
2023/07/26 07:58:21;;;;;;;;;;;19.90;99.90;;;;;;6021520;23;20917;-68
2023/07/26 08:00:47;;;;;;;;;;;19.90;99.90;;;;;;6019845;23;19924;-70
2023/07/26 08:03:12;;;;;;;;;;;19.90;99.90;;;;;;6022864;23;20177;-69
2023/07/26 08:05:38;;;;;;;;;;;19.90;99.90;;;;;;6019879;23;19922;-69
2023/07/26 08:08:06;;;;;;;;;;;19.80;99.90;;;;;;6021457;23;19920;-70
2023/07/26 08:10:31;;;;;;;;;;;19.70;99.90;;;;;;6021999;23;19934;-69
2023/07/26 08:12:57;;;;;;;;;;;19.60;99.90;;;;;;6021228;23;20012;-70
2023/07/26 08:15:22;;;;;;;;;;;19.60;99.90;;;;;;6021694;23;19968;-70
2023/07/26 08:17:48;;;;;;;;;;;19.50;99.90;;;;;;6020055;23;20373;-70
2023/07/26 08:20:13;;;;;;;;;;;19.40;99.90;;;;;;6021470;23;20398;-71
2023/07/26 08:22:39;;;;;;;;;;;19.20;99.90;;;;;;6019547;23;19924;-72
2023/07/26 08:25:06;;;;;;;;;;;19.10;99.90;;;;;;6021916;23;19929;-71
2023/07/26 08:27:31;;;;;;;;;;;18.90;99.90;;;;;;6021416;23;19929;-70
2023/07/26 08:29:57;;;;;;;;;;;18.90;99.90;;;;;;6021244;23;19956;-71
2023/07/26 08:32:22;;;;;;;;;;;18.70;99.90;;;;;;5996669;23;19936;-70
2023/07/26 08:34:48;;;;;;;;;;;18.70;99.90;;;;;;5993649;23;20298;-71
2023/07/26 08:37:13;;;;;;;;;;;18.70;99.90;;;;;;6019791;23;20329;-71
2023/07/26 08:39:39;;;;;;;;;;;18.70;99.90;;;;;;6018324;23;19988;-71
2023/07/26 08:42:05;;;;;;;;;;;18.50;99.90;;;;;;6023310;23;19927;-72
2023/07/26 08:44:32;;;;;;;;;;;18.40;99.90;;;;;;6019703;23;19965;-72
2023/07/26 08:46:59;;;;;;;;;;;18.40;99.90;;;;;;6020761;23;19979;-73
2023/07/26 08:49:25;;;;;;;;;;;18.50;99.90;;;;;;6019546;23;19924;-73
2023/07/26 08:51:50;;;;;;;;;;;18.50;99.90;;;;;;6016977;23;20392;-73
2023/07/26 08:54:16;;;;;;;;;;;18.50;99.90;;;;;;6019643;23;19945;-73
2023/07/26 08:56:42;;;;;;;;;;;18.60;99.90;;;;;;6020451;23;19930;-73
2023/07/26 08:59:07;;;;;;;;;;;18.60;99.90;;;;;;6022029;23;19976;-72
2023/07/26 09:01:33;;;;;;;;;;;18.60;99.90;;;;;;6020317;23;20024;-74
2023/07/26 09:03:59;;;;;;;;;;;18.60;99.90;;;;;;6022669;23;19923;-74
2023/07/26 09:06:24;;;;;;;;;;;18.60;99.90;;;;;;6021829;23;20429;-73
2023/07/26 09:08:51;;;;;;;;;;;18.60;99.90;;;;;;6019972;23;19999;-74
2023/07/26 09:11:24;;;;;;;;;;;18.60;99.90;;;;;;6021001;23;19952;-73
2023/07/26 09:13:56;;;;;;;;;;;18.60;99.90;;;;;;6022662;23;19965;-73
2023/07/26 09:16:21;;;;;;;;;;;18.70;99.90;;;;;;6022350;23;20390;-73
2023/07/26 09:18:59;;;;;;;;;;;18.70;99.90;;;;;;6021187;23;20454;-73
2023/07/26 09:21:28;;;;;;;;;;;18.70;99.90;;;;;;6023209;23;19923;-72
2023/07/26 09:23:54;;;;;;;;;;;18.70;99.90;;;;;;6022690;23;19923;-73
2023/07/26 09:26:42;;;;;;;;;;;18.60;99.90;;;;;;6024352;23;19929;-72
2023/07/26 09:29:12;;;;;;;;;;;18.60;99.90;;;;;;6005971;23;20002;-72
2023/07/26 09:31:41;;;;;;;;;;;18.60;99.90;;;;;;6022002;23;20011;-72
2023/07/26 09:34:08;;;;;;;;;;;18.60;99.90;;;;;;5998408;23;20602;-73
2023/07/26 09:36:43;;;;;;;;;;;18.60;99.90;;;;;;6022721;23;19932;-72
2023/07/26 09:39:10;;;;;;;;;;;18.60;99.90;;;;;;6023867;23;19929;-72
2023/07/26 09:41:36;;;;;;;;;;;18.50;99.90;;;;;;6023587;23;19925;-73
2023/07/26 09:44:01;;;;;;;;;;;18.40;99.90;;;;;;6018387;23;19974;-72
2023/07/26 09:46:27;;;;;;;;;;;18.40;99.90;;;;;;6020718;23;19932;-72
2023/07/26 09:48:59;;;;;;;;;;;18.40;99.90;;;;;;6021386;23;19924;-72
2023/07/26 09:51:27;;;;;;;;;;;18.50;99.90;;;;;;6020973;23;19930;-72
2023/07/26 09:53:53;;;;;;;;;;;18.50;99.90;;;;;;6023637;23;19995;-72
2023/07/26 09:56:19;;;;;;;;;;;18.50;99.90;;;;;;6022276;23;19933;-71
2023/07/26 09:58:46;;;;;;;;;;;18.50;99.90;;;;;;6021581;23;19923;-72
2023/07/26 10:01:14;;;;;;;;;;;18.50;99.90;;;;;;6021486;23;19924;-73
2023/07/26 10:03:40;;;;;;;;;;;18.50;99.90;;;;;;6022806;23;20003;-73
2023/07/26 10:06:06;;;;;;;;;;;18.60;99.90;;;;;;6022569;23;19975;-72
2023/07/26 10:08:32;;;;;;;;;;;18.60;99.90;;;;;;6018657;23;20460;-73
2023/07/26 10:10:58;;;;;;;;;;;18.70;99.90;;;;;;6019891;23;19982;-73
2023/07/26 10:13:24;;;;;;;;;;;18.70;99.90;;;;;;6023449;23;19929;-73
2023/07/26 10:15:50;;;;;;;;;;;18.80;99.90;;;;;;6021159;23;20048;-73
2023/07/26 10:18:17;;;;;;;;;;;18.90;99.90;;;;;;6022505;23;19924;-73
2023/07/26 10:20:43;;;;;;;;;;;19.00;99.90;;;;;;5996306;23;20345;-73
2023/07/26 10:23:10;;;;;;;;;;;19.10;99.90;;;;;;6023188;23;19970;-72
2023/07/26 10:25:36;;;;;;;;;;;19.20;99.90;;;;;;6024051;23;20029;-72
2023/07/26 10:28:02;;;;;;;;;;;19.30;99.90;;;;;;6024455;23;20524;-72
2023/07/26 10:30:28;;;;;;;;;;;19.30;99.90;;;;;;6026227;23;19979;-72
2023/07/26 10:32:54;;;;;;;;;;;19.30;99.90;;;;;;6024187;23;20027;-73
2023/07/26 10:35:26;;;;;;;;;;;19.20;99.90;;;;;;6024560;23;20025;-72
2023/07/26 10:37:51;;;;;;;;;;;19.10;99.90;;;;;;6024278;23;19958;-73
2023/07/26 10:40:30;;;;;;;;;;;19.00;99.90;;;;;;5999493;23;20646;-68
2023/07/26 10:42:57;;;;;;;;;;;18.80;99.90;;;;;;6022982;23;19992;-68
2023/07/26 10:45:40;;;;;;;;;;;18.70;99.90;;;;;;6027229;23;20049;-68
2023/07/26 10:48:11;;;;;;;;;;;18.80;99.90;;;;;;6026871;23;20004;-67
2023/07/26 10:50:36;;;;;;;;;;;18.80;99.90;;;;;;6024778;23;19976;-67
2023/07/26 10:53:21;;;;;;;;;;;19.00;99.90;;;;;;6027183;23;19931;-67
2023/07/26 10:55:49;;;;;;;;;;;19.00;99.90;;;;;;6024646;23;19979;-67
2023/07/26 10:58:15;;;;;;;;;;;19.10;99.90;;;;;;6026091;23;19973;-68
2023/07/26 11:00:41;;;;;;;;;;;19.20;99.90;;;;;;6025418;23;20329;-68
2023/07/26 11:03:08;;;;;;;;;;;19.30;99.90;;;;;;6026946;23;19918;-68
2023/07/26 11:05:37;;;;;;;;;;;19.30;99.90;;;;;;6026070;23;19925;-68
2023/07/26 11:08:04;;;;;;;;;;;19.20;99.90;;;;;;6024582;23;19928;-68
2023/07/26 11:10:48;;;;;;;;;;;19.20;99.90;;;;;;6024755;23;19947;-68
2023/07/26 11:13:16;;;;;;;;;;;19.10;99.90;;;;;;6025084;23;20260;-68
2023/07/26 11:15:42;;;;;;;;;;;19.10;99.90;;;;;;6025129;23;19953;-67
2023/07/26 11:18:08;;;;;;;;;;;19.20;99.90;;;;;;6025250;23;19955;-68
2023/07/26 11:20:38;;;;;;;;;;;19.20;99.90;;;;;;6025663;23;20020;-68
2023/07/26 11:23:24;;;;;;;;;;;19.20;99.90;;;;;;6027232;23;19930;-68
2023/07/26 11:25:57;;;;;;;;;;;19.30;99.90;;;;;;6026565;23;19936;-68
2023/07/26 11:28:24;;;;;;;;;;;19.40;99.90;;;;;;6023564;23;20025;-69
2023/07/26 11:30:53;;;;;;;;;;;19.40;99.90;;;;;;6024626;23;19936;-69
2023/07/26 11:33:26;;;;;;;;;;;19.40;99.90;;;;;;6026172;23;19943;-77
2023/07/26 11:35:51;;;;;;;;;;;19.40;99.90;;;;;;6023561;23;19949;-77
2023/07/26 11:38:17;;;;;;;;;;;19.40;99.90;;;;;;6026846;23;19920;-73
2023/07/26 11:40:43;;;;;;;;;;;19.50;99.90;;;;;;6027692;23;19956;-77
2023/07/26 11:43:09;;;;;;;;;;;19.50;99.90;;;;;;6026590;23;20004;-74
2023/07/26 11:45:41;;;;;;;;;;;19.40;99.90;;;;;;6025032;23;19925;-74
2023/07/26 11:48:10;;;;;;;;;;;19.40;99.90;;;;;;6026021;23;19929;-74
2023/07/26 11:50:36;;;;;;;;;;;19.50;99.90;;;;;;6024516;23;19958;-69
2023/07/26 11:53:03;;;;;;;;;;;19.70;99.90;;;;;;6026649;23;19926;-69
2023/07/26 11:55:29;;;;;;;;;;;19.90;99.90;;;;;;6025743;23;19957;-69
2023/07/26 11:57:55;;;;;;;;;;;20.00;99.90;;;;;;6022421;23;20310;-69
2023/07/26 12:00:20;;;;;;;;;;;20.10;99.90;;;;;;6023051;23;19932;-67
2023/07/26 12:02:46;;;;;;;;;;;20.20;99.90;;;;;;5993071;23;20039;-67
2023/07/26 12:05:18;;;;;;;;;;;20.40;99.90;;;;;;6018178;23;20354;-68
2023/07/26 12:07:48;;;;;;;;;;;20.60;99.90;;;;;;6020465;23;19973;-72
2023/07/26 12:10:14;;;;;;;;;;;20.50;99.90;;;;;;6021209;23;20085;-72
2023/07/26 12:12:41;;;;;;;;;;;20.50;99.90;;;;;;6020507;23;19983;-72
2023/07/26 12:15:09;;;;;;;;;;;20.40;99.90;;;;;;6021639;23;20009;-68
2023/07/26 12:17:35;;;;;;;;;;;20.20;99.90;;;;;;6022763;23;19925;-72
2023/07/26 12:20:04;;;;;;;;;;;20.10;99.90;;;;;;6021990;23;19925;-72
2023/07/26 12:22:30;;;;;;;;;;;20.00;99.90;;;;;;6023393;23;19929;-69
2023/07/26 12:24:59;;;;;;;;;;;20.00;99.90;;;;;;6023720;23;20236;-72
2023/07/26 12:27:25;;;;;;;;;;;19.90;99.90;;;;;;6021371;23;19925;-72
2023/07/26 12:29:50;;;;;;;;;;;19.80;99.90;;;;;;5997467;23;20252;-74
2023/07/26 12:32:16;;;;;;;;;;;19.70;99.90;;;;;;6022960;23;19948;-72
2023/07/26 12:34:42;;;;;;;;;;;19.50;99.90;;;;;;6023711;23;20285;-76
2023/07/26 12:37:08;;;;;;;;;;;19.30;99.90;;;;;;6023931;23;19924;-72
2023/07/26 12:39:36;;;;;;;;;;;19.20;99.90;;;;;;6026353;23;19945;-72
2023/07/26 12:42:01;;;;;;;;;;;19.20;99.90;;;;;;6024228;23;19951;-71
2023/07/26 12:44:27;;;;;;;;;;;19.30;99.90;;;;;;6023587;23;20022;-73
2023/07/26 12:46:52;;;;;;;;;;;19.40;99.90;;;;;;5998103;23;19952;-73
2023/07/26 12:49:18;;;;;;;;;;;19.50;99.90;;;;;;6024476;23;19983;-71
2023/07/26 12:51:43;;;;;;;;;;;19.70;99.90;;;;;;6020734;23;19928;-71
2023/07/26 12:54:09;;;;;;;;;;;19.80;99.90;;;;;;6024040;23;20245;-71
2023/07/26 12:56:34;;;;;;;;;;;19.80;99.90;;;;;;6023844;23;20338;-66
2023/07/26 12:59:00;;;;;;;;;;;19.80;99.90;;;;;;6024396;23;20246;-65
2023/07/26 13:01:25;;;;;;;;;;;19.70;99.90;;;;;;6022431;23;20646;-65
2023/07/26 13:03:51;;;;;;;;;;;19.70;99.90;;;;;;6024093;23;19926;-64
2023/07/26 13:06:17;;;;;;;;;;;19.70;99.90;;;;;;5999965;23;19924;-64
2023/07/26 13:08:44;;;;;;;;;;;19.80;99.90;;;;;;6024051;23;19968;-67
2023/07/26 13:11:10;;;;;;;;;;;19.80;99.90;;;;;;6024806;23;19939;-66
2023/07/26 13:13:35;;;;;;;;;;;19.90;99.90;;;;;;6000761;23;19972;-72
2023/07/26 13:16:01;;;;;;;;;;;20.10;99.90;;;;;;6020725;23;19987;-71
2023/07/26 13:18:26;;;;;;;;;;;20.10;99.90;;;;;;6022639;23;19925;-71
2023/07/26 13:20:53;;;;;;;;;;;20.10;99.90;;;;;;6019745;23;19931;-67
2023/07/26 13:23:19;;;;;;;;;;;20.10;99.90;;;;;;6024609;23;19926;-67
2023/07/26 13:25:46;;;;;;;;;;;20.10;99.90;;;;;;6024525;23;20010;-74
2023/07/26 13:28:11;;;;;;;;;;;20.00;99.90;;;;;;6022358;23;20022;-72
2023/07/26 13:30:37;;;;;;;;;;;20.00;99.90;;;;;;5996440;23;19954;-69
2023/07/26 13:33:02;;;;;;;;;;;19.90;99.90;;;;;;6023411;23;19952;-71
2023/07/26 13:35:28;;;;;;;;;;;19.80;99.90;;;;;;6021427;23;20035;-70
2023/07/26 13:37:53;;;;;;;;;;;19.80;99.90;;;;;;5996827;23;19923;-70
2023/07/26 13:40:20;;;;;;;;;;;19.80;99.90;;;;;;6023057;23;20254;-71
2023/07/26 13:42:46;;;;;;;;;;;19.70;99.90;;;;;;6021549;23;19929;-70
2023/07/26 13:45:11;;;;;;;;;;;19.70;99.90;;;;;;6023421;23;20044;-70
2023/07/26 13:47:37;;;;;;;;;;;19.80;99.90;;;;;;6021636;23;20403;-70
2023/07/26 13:50:03;;;;;;;;;;;19.90;99.90;;;;;;6024398;23;19923;-70
2023/07/26 13:52:28;;;;;;;;;;;19.90;99.90;;;;;;6023027;23;19956;-71
2023/07/26 13:54:54;;;;;;;;;;;19.80;99.90;;;;;;6023334;23;19951;-71
2023/07/26 13:57:19;;;;;;;;;;;19.80;99.90;;;;;;6022130;23;19927;-71
2023/07/26 13:59:45;;;;;;;;;;;19.80;99.90;;;;;;6022091;23;19952;-70
2023/07/26 14:02:10;;;;;;;;;;;19.90;99.90;;;;;;6018244;23;20006;-70
2023/07/26 14:04:36;;;;;;;;;;;20.00;99.90;;;;;;6019069;23;19997;-71
2023/07/26 14:07:01;;;;;;;;;;;20.10;99.90;;;;;;6020731;23;20296;-71
2023/07/26 14:09:27;;;;;;;;;;;20.20;99.90;;;;;;6018909;23;19935;-71
2023/07/26 14:11:52;;;;;;;;;;;20.10;99.90;;;;;;6020290;23;19996;-71